GIA212 WIII-WAHI
Flight info
| Callsign | GIA212 |
|---|---|
| Flight time | N/A |
| Altitude | 33000 |
| Route | PW W17 CLP |
| Aircraft | B738/M-SDE2E3FGHIRWXY/LB1 |
Departure
| Time | 2026-04-28 07:29 |
|---|---|
| Airport | Soekarno-Hatta International Airport (WIII) |
Arrival
| Time | N/A |
|---|---|
| Airport | Yogyakarta International Airport (WAHI) |
| Time | Latitude | Longitude | Altitude | Speed | Heading |
|---|---|---|---|---|---|
| 2026-04-28 07:09 | -6.11736 | 106.66534 | 46 ft | 0 kts | 158° |
| 2026-04-28 07:16 | -6.11729 | 106.66531 | 46 ft | 2 kts | 158° |
| 2026-04-28 07:16 | -6.11715 | 106.66526 | 46 ft | 2 kts | 158° |
| 2026-04-28 07:16 | -6.11701 | 106.66521 | 46 ft | 2 kts | 158° |
| 2026-04-28 07:16 | -6.11687 | 106.66515 | 46 ft | 2 kts | 158° |
| 2026-04-28 07:17 | -6.11673 | 106.66509 | 46 ft | 2 kts | 158° |
| 2026-04-28 07:17 | -6.11658 | 106.66503 | 46 ft | 2 kts | 162° |
| 2026-04-28 07:17 | -6.11644 | 106.66503 | 46 ft | 2 kts | 196° |
| 2026-04-28 07:17 | -6.11630 | 106.66510 | 46 ft | 2 kts | 223° |
| 2026-04-28 07:18 | -6.11622 | 106.66520 | 46 ft | 0 kts | 245° |
| 2026-04-28 07:18 | -6.11620 | 106.66526 | 46 ft | 1 kts | 249° |
| 2026-04-28 07:18 | -6.11620 | 106.66527 | 46 ft | 0 kts | 249° |
| 2026-04-28 07:19 | -6.11622 | 106.66521 | 46 ft | 1 kts | 249° |
| 2026-04-28 07:20 | -6.11630 | 106.66502 | 46 ft | 4 kts | 249° |
| 2026-04-28 07:20 | -6.11644 | 106.66465 | 46 ft | 7 kts | 249° |
| 2026-04-28 07:20 | -6.11642 | 106.66412 | 46 ft | 8 kts | 307° |
| 2026-04-28 07:20 | -6.11578 | 106.66380 | 46 ft | 11 kts | 336° |
| 2026-04-28 07:21 | -6.11491 | 106.66351 | 46 ft | 14 kts | 341° |
| 2026-04-28 07:21 | -6.11393 | 106.66309 | 46 ft | 12 kts | 335° |
| 2026-04-28 07:21 | -6.11361 | 106.66240 | 46 ft | 12 kts | 245° |
| 2026-04-28 07:22 | -6.11438 | 106.66036 | 46 ft | 18 kts | 247° |
| 2026-04-28 07:22 | -6.11489 | 106.65910 | 46 ft | 21 kts | 249° |
| 2026-04-28 07:22 | -6.11547 | 106.65762 | 46 ft | 23 kts | 248° |
| 2026-04-28 07:22 | -6.11606 | 106.65614 | 46 ft | 22 kts | 248° |
| 2026-04-28 07:23 | -6.11663 | 106.65472 | 46 ft | 21 kts | 248° |
| 2026-04-28 07:23 | -6.11716 | 106.65337 | 46 ft | 20 kts | 248° |
| 2026-04-28 07:23 | -6.11767 | 106.65209 | 46 ft | 19 kts | 249° |
| 2026-04-28 07:23 | -6.11815 | 106.65085 | 46 ft | 19 kts | 248° |
| 2026-04-28 07:24 | -6.11870 | 106.64950 | 46 ft | 22 kts | 248° |
| 2026-04-28 07:24 | -6.11931 | 106.64799 | 47 ft | 24 kts | 249° |
| 2026-04-28 07:24 | -6.11996 | 106.64629 | 47 ft | 27 kts | 250° |
| 2026-04-28 07:24 | -6.12066 | 106.64456 | 47 ft | 22 kts | 246° |
| 2026-04-28 07:25 | -6.12125 | 106.64311 | 47 ft | 21 kts | 249° |
| 2026-04-28 07:25 | -6.12175 | 106.64177 | 46 ft | 19 kts | 246° |
| 2026-04-28 07:25 | -6.12209 | 106.64096 | 47 ft | 10 kts | 248° |
| 2026-04-28 07:25 | -6.12235 | 106.64034 | 47 ft | 9 kts | 248° |
| 2026-04-28 07:26 | -6.12256 | 106.63982 | 46 ft | 7 kts | 250° |
| 2026-04-28 07:26 | -6.12260 | 106.63937 | 46 ft | 5 kts | 282° |
| 2026-04-28 07:26 | -6.12242 | 106.63906 | 47 ft | 3 kts | 317° |
| 2026-04-28 07:26 | -6.12232 | 106.63899 | 47 ft | 0 kts | 322° |
| 2026-04-28 07:27 | -6.12228 | 106.63896 | 47 ft | 1 kts | 327° |
| 2026-04-28 07:27 | -6.12217 | 106.63889 | 47 ft | 1 kts | 332° |
| 2026-04-28 07:27 | -6.12193 | 106.63885 | 47 ft | 5 kts | 359° |
| 2026-04-28 07:27 | -6.12155 | 106.63894 | 47 ft | 6 kts | 25° |
| 2026-04-28 07:28 | -6.12115 | 106.63904 | 47 ft | 4 kts | 0° |
| 2026-04-28 07:28 | -6.12086 | 106.63924 | 47 ft | 5 kts | 64° |
| 2026-04-28 07:28 | -6.12061 | 106.63982 | 47 ft | 22 kts | 67° |
| 2026-04-28 07:28 | -6.11909 | 106.64365 | 47 ft | 92 kts | 69° |
| 2026-04-28 07:29 | -6.11597 | 106.65152 | 47 ft | 150 kts | 69° |
| 2026-04-28 07:29 | -6.11171 | 106.66257 | 197 ft | 182 kts | 67° |
| 2026-04-28 07:29 | -6.10707 | 106.67448 | 891 ft | 186 kts | 67° |
| 2026-04-28 07:29 | -6.10124 | 106.68639 | 1509 ft | 197 kts | 51° |
| 2026-04-28 07:30 | -6.09277 | 106.69738 | 2036 ft | 205 kts | 61° |
| 2026-04-28 07:30 | -6.09042 | 106.71164 | 2399 ft | 222 kts | 100° |
| 2026-04-28 07:30 | -6.09832 | 106.72533 | 2827 ft | 237 kts | 135° |
| 2026-04-28 07:30 | -6.10996 | 106.73519 | 3275 ft | 245 kts | 137° |
| 2026-04-28 07:31 | -6.12275 | 106.74786 | 3832 ft | 255 kts | 129° |
| 2026-04-28 07:31 | -6.13350 | 106.76210 | 4586 ft | 257 kts | 122° |
| 2026-04-28 07:31 | -6.14311 | 106.77711 | 5114 ft | 269 kts | 120° |
| 2026-04-28 07:31 | -6.15280 | 106.79291 | 5744 ft | 276 kts | 120° |
| 2026-04-28 07:32 | -6.16260 | 106.80881 | 6429 ft | 280 kts | 121° |
| 2026-04-28 07:32 | -6.17256 | 106.82473 | 7259 ft | 278 kts | 121° |
| 2026-04-28 07:32 | -6.18241 | 106.84036 | 8028 ft | 278 kts | 121° |
| 2026-04-28 07:32 | -6.19192 | 106.85541 | 8695 ft | 281 kts | 121° |
| 2026-04-28 07:33 | -6.20220 | 106.87169 | 9401 ft | 283 kts | 121° |
| 2026-04-28 07:33 | -6.21247 | 106.88794 | 10089 ft | 286 kts | 121° |
| 2026-04-28 07:33 | -6.22304 | 106.90469 | 10594 ft | 297 kts | 121° |
| 2026-04-28 07:33 | -6.23366 | 106.92155 | 10936 ft | 312 kts | 121° |
| 2026-04-28 07:34 | -6.24551 | 106.94034 | 11327 ft | 326 kts | 121° |
| 2026-04-28 07:34 | -6.25794 | 106.96002 | 11734 ft | 339 kts | 121° |
| 2026-04-28 07:34 | -6.27084 | 106.98041 | 12127 ft | 352 kts | 122° |
| 2026-04-28 07:34 | -6.28420 | 107.00153 | 12530 ft | 364 kts | 122° |
| 2026-04-28 07:35 | -6.29796 | 107.02330 | 13116 ft | 370 kts | 122° |
| 2026-04-28 07:35 | -6.31182 | 107.04523 | 13716 ft | 376 kts | 122° |
| 2026-04-28 07:35 | -6.32600 | 107.06768 | 14410 ft | 379 kts | 122° |
| 2026-04-28 07:35 | -6.34001 | 107.08990 | 15034 ft | 383 kts | 122° |
| 2026-04-28 07:36 | -6.35443 | 107.11274 | 15653 ft | 387 kts | 122° |
| 2026-04-28 07:36 | -6.36896 | 107.13577 | 16258 ft | 391 kts | 122° |
| 2026-04-28 07:36 | -6.38360 | 107.15898 | 16847 ft | 395 kts | 122° |
| 2026-04-28 07:36 | -6.39840 | 107.18244 | 17365 ft | 400 kts | 122° |
| 2026-04-28 07:37 | -6.41324 | 107.20596 | 17898 ft | 404 kts | 122° |
| 2026-04-28 07:37 | -6.42829 | 107.22983 | 18490 ft | 406 kts | 122° |
| 2026-04-28 07:37 | -6.44361 | 107.25413 | 18994 ft | 411 kts | 122° |
| 2026-04-28 07:37 | -6.45894 | 107.27844 | 19526 ft | 414 kts | 122° |
| 2026-04-28 07:38 | -6.47432 | 107.30283 | 19833 ft | 418 kts | 122° |
| 2026-04-28 07:38 | -6.48999 | 107.32767 | 19851 ft | 418 kts | 122° |
| 2026-04-28 07:38 | -6.50552 | 107.35229 | 19850 ft | 415 kts | 122° |
| 2026-04-28 07:38 | -6.52109 | 107.37677 | 19862 ft | 416 kts | 123° |
| 2026-04-28 07:39 | -6.53774 | 107.40042 | 19869 ft | 416 kts | 128° |
| 2026-04-28 07:39 | -6.55759 | 107.42176 | 19872 ft | 416 kts | 137° |
| 2026-04-28 07:39 | -6.58079 | 107.43923 | 19889 ft | 418 kts | 147° |
| 2026-04-28 07:39 | -6.60685 | 107.45246 | 20267 ft | 425 kts | 157° |
| 2026-04-28 07:40 | -6.63488 | 107.46220 | 20920 ft | 425 kts | 162° |
| 2026-04-28 07:40 | -6.66337 | 107.46976 | 21441 ft | 427 kts | 166° |
| 2026-04-28 07:40 | -6.69266 | 107.47620 | 21920 ft | 431 kts | 167° |
| 2026-04-28 07:40 | -6.72237 | 107.48208 | 22396 ft | 434 kts | 168° |
| 2026-04-28 07:41 | -6.75232 | 107.48775 | 22845 ft | 438 kts | 168° |
| 2026-04-28 07:41 | -6.78220 | 107.49342 | 23269 ft | 442 kts | 168° |
| 2026-04-28 07:41 | -6.81255 | 107.50010 | 23705 ft | 445 kts | 164° |
| 2026-04-28 07:41 | -6.84210 | 107.51057 | 24116 ft | 448 kts | 155° |
| 2026-04-28 07:42 | -6.86840 | 107.52499 | 24538 ft | 449 kts | 146° |
| 2026-04-28 07:42 | -6.88063 | 107.53372 | 24747 ft | 451 kts | 142° |
| 2026-04-28 07:42 | -6.88492 | 107.53713 | 24807 ft | 451 kts | 140° |